Time;durP1;ratioP1;P1;durP2;ratioP2;P2;SDS_P1;SDS_P2;PMS_P1;PMS_P2;Temp;Humidity;BMP_temperature;BMP_pressure;BME280_temperature;BME280_humidity;BME280_pressure;Samples;Min_cycle;Max_cycle;Signal;HPM_P1;HPM_P2
2021/07/16 00:00:29;;;;;;;7.60;2.97;;;;;;;22.31;60.89;99848.78;5058786;28;20060;-75
2021/07/16 00:02:58;;;;;;;6.90;3.03;;;;;;;22.34;60.53;99848.41;5059046;28;20099;-71
2021/07/16 00:05:28;;;;;;;5.95;3.05;;;;;;;22.44;60.29;99842.75;5058807;28;20437;-73
2021/07/16 00:07:56;;;;;;;7.30;2.88;;;;;;;22.27;60.47;99848.25;5058959;28;20049;-71
2021/07/16 00:10:24;;;;;;;4.78;2.72;;;;;;;22.07;61.13;99847.00;5058989;28;20469;-71
2021/07/16 00:12:53;;;;;;;7.00;3.60;;;;;;;22.13;60.77;99843.59;5058759;28;20071;-71
2021/07/16 00:15:22;;;;;;;6.15;2.55;;;;;;;22.04;61.36;99841.91;5057512;28;20551;-71
2021/07/16 00:17:51;;;;;;;5.40;2.83;;;;;;;21.90;62.31;99845.31;5058346;28;20055;-72
2021/07/16 00:20:20;;;;;;;7.57;2.95;;;;;;;21.83;63.44;99844.34;5058869;28;20040;-72
2021/07/16 00:22:50;;;;;;;5.38;2.60;;;;;;;21.83;62.54;99847.06;5058680;28;20052;-73
2021/07/16 00:25:18;;;;;;;7.80;2.97;;;;;;;21.87;62.95;99849.25;5056581;28;20048;-73
2021/07/16 00:27:46;;;;;;;8.00;3.05;;;;;;;21.81;63.76;99847.25;5055546;28;20459;-73
2021/07/16 00:30:16;;;;;;;4.40;2.80;;;;;;;22.03;62.90;99856.50;5055459;28;20049;-72
2021/07/16 00:32:44;;;;;;;10.68;3.13;;;;;;;22.01;62.88;99861.25;5055303;28;20037;-72
2021/07/16 00:35:13;;;;;;;7.38;3.00;;;;;;;21.88;63.54;99855.50;5055679;28;20041;-72
2021/07/16 00:37:41;;;;;;;9.35;3.20;;;;;;;21.95;63.12;99840.22;5054905;28;20041;-73
2021/07/16 00:40:12;;;;;;;5.88;2.97;;;;;;;21.95;63.05;99845.66;5055377;28;20436;-74
2021/07/16 00:42:42;;;;;;;5.40;2.50;;;;;;;21.98;62.58;99837.16;5054983;28;20045;-74
2021/07/16 00:45:12;;;;;;;6.30;2.75;;;;;;;21.97;62.14;99849.03;5055087;28;20064;-73
2021/07/16 00:47:41;;;;;;;5.45;2.83;;;;;;;21.85;62.05;99845.03;5055255;28;20045;-73
2021/07/16 00:50:12;;;;;;;6.07;2.95;;;;;;;21.84;62.39;99846.03;5055386;28;20422;-73
2021/07/16 00:52:42;;;;;;;6.78;3.08;;;;;;;21.80;62.68;99841.97;5055183;28;20045;-73
2021/07/16 00:55:13;;;;;;;7.00;3.17;;;;;;;21.89;62.58;99854.50;5054986;28;20479;-73
2021/07/16 00:57:42;;;;;;;6.80;2.95;;;;;;;21.75;64.12;99849.81;5054929;28;20471;-73
2021/07/16 01:00:12;;;;;;;5.40;3.40;;;;;;;21.55;65.00;99858.31;5054836;28;20047;-72
2021/07/16 01:02:41;;;;;;;9.07;3.50;;;;;;;21.58;64.33;99855.25;5054563;28;20136;-72
2021/07/16 01:05:12;;;;;;;5.88;3.22;;;;;;;21.45;65.27;99851.38;5054881;28;20056;-72
2021/07/16 01:07:41;;;;;;;6.97;3.50;;;;;;;21.45;65.47;99854.94;5054614;28;20049;-72
2021/07/16 01:10:13;;;;;;;6.07;3.72;;;;;;;21.31;66.62;99850.19;5054967;28;20453;-72
2021/07/16 01:12:43;;;;;;;8.13;3.35;;;;;;;21.31;66.71;99856.47;5054777;28;20041;-72
2021/07/16 01:15:15;;;;;;;8.55;3.33;;;;;;;21.24;67.30;99862.75;5055039;28;20045;-72
2021/07/16 01:17:44;;;;;;;7.10;3.90;;;;;;;21.12;67.97;99863.06;5054452;28;20060;-72
2021/07/16 01:20:14;;;;;;;6.53;3.85;;;;;;;21.10;68.08;99859.69;5054581;28;20052;-72
2021/07/16 01:22:45;;;;;;;7.43;3.67;;;;;;;20.99;69.19;99860.00;5054522;28;20041;-72
2021/07/16 01:25:18;;;;;;;7.78;3.70;;;;;;;20.94;69.58;99858.81;5054625;28;20475;-72
2021/07/16 01:27:47;;;;;;;;;;;;;;;20.92;69.72;99856.28;5054539;28;20064;-72
2021/07/16 01:30:18;;;;;;;6.25;3.75;;;;;;;20.91;69.48;99848.31;5053165;28;19921;-72
2021/07/16 01:32:47;;;;;;;6.15;3.55;;;;;;;20.97;69.60;99851.22;5054130;28;20445;-72
2021/07/16 01:35:17;;;;;;;7.47;3.75;;;;;;;21.05;68.59;99848.50;5054154;28;20041;-72
2021/07/16 01:37:45;;;;;;;7.15;3.50;;;;;;;21.05;68.72;99847.66;5052727;28;20041;-72
2021/07/16 01:40:17;;;;;;;8.07;3.58;;;;;;;21.01;68.86;99843.56;5054423;28;20041;-71
2021/07/16 01:42:47;;;;;;;6.43;4.18;;;;;;;21.03;69.52;99846.97;5053890;28;20051;-72
2021/07/16 01:45:18;;;;;;;7.88;3.90;;;;;;;21.02;69.11;99837.97;5053916;28;20048;-71
2021/07/16 01:47:49;;;;;;;6.63;3.35;;;;;;;20.87;70.29;99847.81;5053904;28;20063;-72
2021/07/16 01:50:19;;;;;;;7.63;3.65;;;;;;;20.86;70.06;99835.28;5054072;28;20040;-71
2021/07/16 01:52:49;;;;;;;6.50;3.90;;;;;;;21.00;69.19;99834.59;5053680;28;20571;-70
2021/07/16 01:55:20;;;;;;;8.75;3.60;;;;;;;20.90;69.88;99833.91;5053888;28;20120;-70
2021/07/16 01:57:50;;;;;;;6.80;3.65;;;;;;;21.05;69.12;99829.53;5053392;28;20050;-71
2021/07/16 02:00:21;;;;;;;7.90;3.88;;;;;;;20.99;69.50;99832.91;5054180;28;20053;-70
2021/07/16 02:02:51;;;;;;;7.15;3.95;;;;;;;20.94;69.38;99840.72;5052495;28;20057;-70
2021/07/16 02:05:20;;;;;;;5.75;3.78;;;;;;;20.89;69.94;99844.94;5053976;28;20450;-70
2021/07/16 02:07:50;;;;;;;6.70;3.83;;;;;;;20.86;70.27;99843.41;5053341;28;20055;-71
2021/07/16 02:10:21;;;;;;;7.95;3.90;;;;;;;20.86;70.32;99840.69;5053557;28;20049;-72
2021/07/16 02:12:50;;;;;;;6.07;3.78;;;;;;;20.82;71.00;99845.59;5053504;28;20044;-74
2021/07/16 02:15:21;;;;;;;6.85;4.00;;;;;;;20.89;70.64;99844.94;5053783;28;20040;-73
2021/07/16 02:17:49;;;;;;;6.97;3.60;;;;;;;20.85;70.79;99842.56;5052886;28;20140;-74
2021/07/16 02:20:22;;;;;;;6.53;3.88;;;;;;;20.55;72.09;99851.31;5053434;28;20487;-74
2021/07/16 02:22:51;;;;;;;7.25;4.30;;;;;;;20.44;72.98;99840.78;5053152;28;20045;-74
2021/07/16 02:25:22;;;;;;;8.98;4.13;;;;;;;20.35;73.37;99831.75;5053715;28;20072;-73
2021/07/16 02:27:53;;;;;;;7.00;4.07;;;;;;;20.28;74.06;99830.75;5053210;28;20045;-73
2021/07/16 02:30:26;;;;;;;8.15;3.95;;;;;;;20.57;73.05;99839.31;5053430;28;20447;-73
2021/07/16 02:32:57;;;;;;;7.43;4.07;;;;;;;20.41;74.06;99835.66;5052898;28;20502;-73
2021/07/16 02:35:26;;;;;;;8.48;4.22;;;;;;;20.25;74.85;99834.59;5053164;28;20484;-73
2021/07/16 02:37:55;;;;;;;7.20;4.18;;;;;;;20.22;74.95;99826.81;5052884;28;20045;-73
2021/07/16 02:40:24;;;;;;;9.25;4.50;;;;;;;20.28;75.10;99830.75;5053214;28;20041;-73
2021/07/16 02:42:53;;;;;;;8.20;4.00;;;;;;;20.34;74.83;99835.47;5052778;28;20064;-73
2021/07/16 02:45:23;;;;;;;9.95;5.20;;;;;;;20.24;75.30;99832.06;5053112;28;20079;-73
2021/07/16 02:47:52;;;;;;;9.45;4.28;;;;;;;20.08;76.23;99832.03;5051141;28;20048;-73
2021/07/16 02:50:23;;;;;;;7.93;4.40;;;;;;;19.98;76.67;99824.03;5052945;28;20041;-73
2021/07/16 02:52:53;;;;;;;6.93;4.47;;;;;;;19.99;76.55;99820.31;5052638;28;20075;-73
2021/07/16 02:55:22;;;;;;;7.88;4.65;;;;;;;19.89;77.63;99819.59;5053126;28;20095;-73
2021/07/16 02:57:52;;;;;;;7.18;4.50;;;;;;;19.87;77.66;99816.19;5052714;28;20041;-73
2021/07/16 03:00:23;;;;;;;7.97;4.70;;;;;;;19.99;76.16;99815.75;5052862;28;20399;-73
2021/07/16 03:02:52;;;;;;;6.13;4.20;;;;;;;20.14;76.24;99829.50;5052785;28;20040;-73
2021/07/16 03:05:22;;;;;;;9.30;4.78;;;;;;;20.29;75.56;99832.44;5053050;28;20044;-73
2021/07/16 03:07:52;;;;;;;7.53;4.20;;;;;;;20.33;74.61;99822.94;5052570;28;20411;-75
2021/07/16 03:10:22;;;;;;;7.40;4.13;;;;;;;20.32;74.41;99826.69;5052780;28;20041;-75
2021/07/16 03:12:55;;;;;;;9.48;4.78;;;;;;;20.23;74.62;99824.94;5052468;28;20041;-75
2021/07/16 03:15:27;;;;;;;6.82;4.20;;;;;;;20.33;73.92;99816.69;5053064;28;20049;-76
2021/07/16 03:17:56;;;;;;;8.02;4.32;;;;;;;20.21;74.32;99824.28;5052474;28;20111;-72
2021/07/16 03:20:27;;;;;;;9.05;4.28;;;;;;;20.14;75.06;99820.53;5052748;28;20041;-72
2021/07/16 03:22:56;;;;;;;7.28;4.50;;;;;;;20.24;74.98;99824.78;5052353;28;20045;-72
2021/07/16 03:25:26;;;;;;;8.60;4.47;;;;;;;20.51;73.17;99826.41;5052505;28;20037;-72
2021/07/16 03:27:56;;;;;;;7.90;4.10;;;;;;;20.32;73.53;99820.41;5052361;28;20045;-71
2021/07/16 03:30:27;;;;;;;7.95;4.30;;;;;;;20.26;74.24;99811.06;5052819;28;20541;-71
2021/07/16 03:32:56;;;;;;;8.38;4.40;;;;;;;20.44;73.59;99810.97;5052180;28;20037;-73
2021/07/16 03:35:25;;;;;;;8.80;4.30;;;;;;;20.41;73.47;99822.97;5052491;28;20041;-73
2021/07/16 03:37:54;;;;;;;7.80;4.30;;;;;;;20.39;73.49;99822.31;5051850;28;20045;-73
2021/07/16 03:40:27;;;;;;;8.05;4.68;;;;;;;20.46;73.01;99834.22;5052562;28;20055;-73
2021/07/16 03:42:57;;;;;;;;;;;;;;;20.62;72.43;99832.53;5052784;28;20420;-72
2021/07/16 03:45:26;;;;;;;7.32;4.10;;;;;;;20.85;71.15;99839.00;5052579;28;20281;-73
2021/07/16 03:47:54;;;;;;;8.40;4.18;;;;;;;20.73;72.02;99843.03;5052036;28;20048;-73
2021/07/16 03:50:24;;;;;;;11.13;4.20;;;;;;;20.77;71.85;99857.97;5052239;28;20037;-73
2021/07/16 03:52:53;;;;;;;7.10;3.97;;;;;;;21.00;70.74;99863.56;5052214;28;20037;-73
2021/07/16 03:55:22;;;;;;;6.97;4.03;;;;;;;21.09;70.05;99859.84;5052307;28;20049;-73
2021/07/16 03:57:51;;;;;;;8.65;4.50;;;;;;;21.25;69.54;99857.16;5051929;28;20041;-73
2021/07/16 04:00:26;;;;;;;8.18;4.22;;;;;;;21.65;67.51;99866.28;5053306;28;20136;-72
2021/07/16 04:02:54;;;;;;;6.82;3.92;;;;;;;21.51;67.52;99870.53;5055866;28;20067;-71
2021/07/16 04:05:25;;;;;;;9.00;4.20;;;;;;;21.75;66.34;99876.94;5055933;28;20079;-71
2021/07/16 04:08:01;;;;;;;8.77;3.97;;;;;;;21.77;65.34;99875.75;5055829;28;20045;-72
2021/07/16 04:10:30;;;;;;;6.65;4.05;;;;;;;21.74;65.26;99878.81;5055939;28;20048;-71
2021/07/16 04:13:01;;;;;;;10.52;4.25;;;;;;;21.83;64.95;99876.94;5055461;28;20045;-71
2021/07/16 04:15:31;;;;;;;8.07;3.95;;;;;;;21.93;64.73;99872.16;5055771;28;20549;-70
2021/07/16 04:18:01;;;;;;;7.28;3.95;;;;;;;22.14;63.86;99875.16;5055255;28;20103;-71
2021/07/16 04:20:30;;;;;;;11.35;3.80;;;;;;;22.16;63.38;99883.97;5055752;28;20041;-71
2021/07/16 04:22:59;;;;;;;7.32;3.55;;;;;;;22.81;61.39;99880.06;5055408;28;20043;-71
2021/07/16 04:25:28;;;;;;;8.15;3.60;;;;;;;23.15;60.52;99879.66;5055715;28;20446;-71
2021/07/16 04:28:00;;;;;;;8.75;3.50;;;;;;;22.93;60.76;99872.38;5055109;28;20099;-71
2021/07/16 04:30:32;;;;;;;7.68;3.30;;;;;;;22.62;61.53;99875.94;5055557;28;20048;-70
2021/07/16 04:33:02;;;;;;;6.43;3.42;;;;;;;22.23;62.04;99875.97;5054080;28;20111;-71
2021/07/16 04:35:31;;;;;;;8.88;3.20;;;;;;;22.14;62.52;99875.16;5055448;28;20106;-70
2021/07/16 04:38:00;;;;;;;8.68;3.63;;;;;;;22.13;62.94;99878.91;5053865;28;20052;-71
2021/07/16 04:40:29;;;;;;;8.48;3.38;;;;;;;22.00;63.38;99873.13;5056047;28;20446;-70
2021/07/16 04:42:58;;;;;;;8.88;3.45;;;;;;;22.06;63.26;99871.59;5055642;28;20049;-69
2021/07/16 04:45:26;;;;;;;5.82;3.08;;;;;;;22.14;63.25;99879.75;5055363;28;20041;-69
2021/07/16 04:47:56;;;;;;;12.50;3.70;;;;;;;22.09;63.33;99882.97;5054865;28;20527;-70
2021/07/16 04:50:24;;;;;;;7.65;3.47;;;;;;;22.26;63.49;99883.75;5055071;28;20041;-69
2021/07/16 04:52:53;;;;;;;10.27;3.53;;;;;;;22.51;62.99;99882.63;5054585;28;20041;-70
2021/07/16 04:55:22;;;;;;;10.25;3.55;;;;;;;23.16;60.27;99885.94;5054862;28;20045;-71
2021/07/16 04:57:51;;;;;;;9.00;3.70;;;;;;;23.31;60.04;99887.69;5054785;28;20037;-70
2021/07/16 05:00:21;;;;;;;7.78;3.53;;;;;;;23.55;59.35;99891.25;5054807;28;20083;-69
2021/07/16 05:02:49;;;;;;;8.38;3.40;;;;;;;23.68;58.81;99891.47;5054550;28;20433;-70
2021/07/16 05:05:19;;;;;;;10.10;3.67;;;;;;;24.32;56.89;99894.53;5054872;28;20041;-68
2021/07/16 05:07:47;;;;;;;9.50;3.63;;;;;;;25.39;53.51;99897.41;5054689;28;20045;-71
2021/07/16 05:10:16;;;;;;;9.75;3.60;;;;;;;26.01;52.03;99896.63;5054996;28;20076;-69
2021/07/16 05:12:45;;;;;;;9.63;4.13;;;;;;;26.34;51.43;99901.44;5054154;28;20064;-70
2021/07/16 05:15:13;;;;;;;8.30;4.05;;;;;;;26.20;50.97;99889.59;5054513;28;20045;-70
2021/07/16 05:17:42;;;;;;;7.78;3.97;;;;;;;26.53;50.29;99904.28;5054542;28;20052;-70
2021/07/16 05:20:11;;;;;;;7.53;3.92;;;;;;;26.94;49.55;99905.28;5054320;28;20102;-69
2021/07/16 05:22:42;;;;;;;7.88;4.30;;;;;;;26.95;49.21;99907.81;5054803;28;20124;-70
2021/07/16 05:25:11;;;;;;;9.80;4.68;;;;;;;26.93;49.08;99917.28;5054598;28;20085;-70
2021/07/16 05:27:40;;;;;;;10.30;4.72;;;;;;;26.79;49.99;99914.50;5054469;28;20385;-70
2021/07/16 05:30:10;;;;;;;10.55;5.00;;;;;;;26.39;51.53;99923.59;5054126;28;20047;-70
2021/07/16 05:32:40;;;;;;;8.90;4.97;;;;;;;26.31;51.45;99913.63;5054400;28;20079;-70
2021/07/16 05:35:09;;;;;;;11.05;5.80;;;;;;;26.54;52.17;99905.16;5053978;28;20100;-70
2021/07/16 05:37:38;;;;;;;11.88;6.10;;;;;;;26.05;53.21;99914.31;5054467;28;20479;-70
2021/07/16 05:40:09;;;;;;;10.93;5.93;;;;;;;26.43;52.43;99908.44;5053837;28;20045;-70
2021/07/16 05:42:38;;;;;;;11.70;6.20;;;;;;;27.05;51.81;99912.94;5054159;28;20059;-71
2021/07/16 05:45:06;;;;;;;10.60;6.93;;;;;;;27.52;50.64;99906.44;5053640;28;20056;-70
2021/07/16 05:47:37;;;;;;;9.48;6.72;;;;;;;27.83;49.65;99903.09;5054317;28;20424;-67
2021/07/16 05:50:07;;;;;;;11.35;6.30;;;;;;;27.81;49.50;99898.88;5053707;28;20041;-67
2021/07/16 05:52:35;;;;;;;10.20;6.55;;;;;;;28.07;49.43;99900.72;5054077;28;20037;-70
2021/07/16 05:55:08;;;;;;;13.73;7.05;;;;;;;28.27;49.72;99904.25;5053790;28;20080;-69
2021/07/16 05:57:36;;;;;;;11.77;7.28;;;;;;;28.88;47.86;99901.06;5052867;28;20057;-69
2021/07/16 06:00:06;;;;;;;13.50;7.32;;;;;;;28.87;48.76;99893.91;5053710;28;20049;-70
2021/07/16 06:02:34;;;;;;;10.90;7.18;;;;;;;28.59;49.63;99890.66;5053877;28;20049;-69
2021/07/16 06:05:03;;;;;;;13.30;8.18;;;;;;;28.41;50.39;99888.63;5053485;28;20431;-69
2021/07/16 06:07:32;;;;;;;14.05;7.07;;;;;;;29.38;48.90;99883.88;5053717;28;20120;-69
2021/07/16 06:10:01;;;;;;;16.73;7.85;;;;;;;30.55;45.42;99891.16;5053683;28;20045;-69
2021/07/16 06:12:30;;;;;;;14.10;7.85;;;;;;;29.83;47.09;99892.81;5053690;28;20048;-69
2021/07/16 06:14:59;;;;;;;16.13;7.72;;;;;;;31.04;44.36;99892.00;5053789;28;20503;-67
2021/07/16 06:17:32;;;;;;;15.63;7.87;;;;;;;31.47;43.47;99888.19;5053244;28;20107;-68
2021/07/16 06:20:00;;;;;;;12.52;7.57;;;;;;;31.37;43.43;99879.69;5053389;28;20092;-69
2021/07/16 06:22:28;;;;;;;15.05;7.78;;;;;;;31.19;44.09;99886.91;5052823;28;20040;-69
2021/07/16 06:24:57;;;;;;;13.00;7.53;;;;;;;31.57;43.15;99886.53;5052922;28;20487;-68
2021/07/16 06:27:25;;;;;;;14.13;7.75;;;;;;;31.89;42.67;99889.81;5053627;28;20045;-68
2021/07/16 06:29:55;;;;;;;13.40;7.78;;;;;;;32.76;40.12;99891.69;5053412;28;20041;-68
2021/07/16 06:32:23;;;;;;;9.45;7.07;;;;;;;33.01;39.64;99883.94;5053190;28;20048;-68
2021/07/16 06:34:51;;;;;;;12.48;7.30;;;;;;;32.74;40.01;99893.88;5053376;28;20084;-68
2021/07/16 06:37:20;;;;;;;11.57;7.18;;;;;;;32.88;40.97;99892.50;5053380;28;20124;-68
2021/07/16 06:39:48;;;;;;;10.90;8.13;;;;;;;33.62;37.94;99889.72;5053140;28;20094;-68
2021/07/16 06:42:16;;;;;;;10.18;7.57;;;;;;;32.95;40.34;99890.44;5053117;28;20048;-68
2021/07/16 06:44:45;;;;;;;10.40;7.32;;;;;;;32.46;40.51;99892.75;5053013;28;20076;-68
2021/07/16 06:47:17;;;;;;;12.75;7.43;;;;;;;33.13;39.72;99880.28;5052729;28;20102;-68
2021/07/16 06:49:46;;;;;;;9.75;6.60;;;;;;;33.73;38.86;99890.69;5053418;28;20053;-68
2021/07/16 06:52:15;;;;;;;14.50;7.45;;;;;;;33.06;39.42;99885.94;5052808;28;20376;-68
2021/07/16 06:54:45;;;;;;;11.63;7.28;;;;;;;33.07;38.75;99882.09;5053280;28;20045;-67
2021/07/16 06:57:18;;;;;;;13.10;6.72;;;;;;;33.11;38.25;99885.22;5052434;28;20063;-67
2021/07/16 06:59:46;;;;;;;9.95;7.40;;;;;;;32.55;39.67;99889.63;5052595;28;20406;-67
2021/07/16 07:02:21;;;;;;;9.98;6.05;;;;;;;32.43;40.20;99882.22;5052132;28;20099;-67
2021/07/16 07:04:49;;;;;;;11.25;6.63;;;;;;;32.00;41.16;99877.09;5053143;28;20043;-67
2021/07/16 07:07:18;;;;;;;12.10;6.30;;;;;;;31.29;41.47;99875.34;5051620;28;20155;-67
2021/07/16 07:09:46;;;;;;;12.70;6.13;;;;;;;30.67;41.90;99878.31;5052823;28;20056;-67
2021/07/16 07:12:14;;;;;;;11.32;6.15;;;;;;;29.64;44.33;99876.28;5052479;28;20537;-67
2021/07/16 07:14:43;;;;;;;13.13;7.38;;;;;;;29.77;45.46;99877.22;5052607;28;20438;-68
2021/07/16 07:17:11;;;;;;;13.90;6.78;;;;;;;29.47;46.73;99869.63;5052462;28;20049;-68
2021/07/16 07:19:41;;;;;;;9.45;6.10;;;;;;;29.26;45.62;99879.09;5052940;28;20076;-67
2021/07/16 07:22:09;;;;;;;7.50;4.45;;;;;;;28.98;42.72;99874.00;5052454;28;20053;-67
2021/07/16 07:24:38;;;;;;;7.53;4.60;;;;;;;28.77;44.27;99874.31;5052596;28;20041;-67
2021/07/16 07:27:06;;;;;;;9.95;5.20;;;;;;;28.15;46.71;99886.78;5052312;28;20045;-67
2021/07/16 07:29:35;;;;;;;12.35;5.75;;;;;;;28.57;46.04;99885.41;5052793;28;20384;-66
2021/07/16 07:32:04;;;;;;;10.65;5.88;;;;;;;28.56;45.88;99880.94;5052666;28;20037;-67
2021/07/16 07:34:32;;;;;;;8.10;5.05;;;;;;;28.53;45.61;99881.41;5054373;28;20044;-67
2021/07/16 07:37:02;;;;;;;9.45;5.18;;;;;;;28.59;45.39;99879.69;5056532;28;20037;-67
2021/07/16 07:39:31;;;;;;;8.63;4.18;;;;;;;28.54;43.60;99879.50;5056676;28;20048;-67
2021/07/16 07:42:02;;;;;;;7.50;3.53;;;;;;;28.65;41.93;99876.06;5056831;28;20487;-67
2021/07/16 07:44:30;;;;;;;5.68;2.92;;;;;;;28.84;40.05;99877.84;5056694;28;20044;-67
2021/07/16 07:47:00;;;;;;;5.95;2.80;;;;;;;28.85;40.25;99870.47;5056488;28;20052;-66
2021/07/16 07:49:29;;;;;;;6.88;2.95;;;;;;;28.70;40.72;99870.78;5056542;28;20044;-67
2021/07/16 07:51:57;;;;;;;7.10;2.97;;;;;;;29.15;39.61;99874.31;5056525;28;20091;-67
2021/07/16 07:54:27;;;;;;;6.65;2.70;;;;;;;29.32;39.21;99869.94;5056429;28;20454;-67
2021/07/16 07:56:55;;;;;;;4.75;2.42;;;;;;;28.84;39.29;99871.53;5056408;28;20045;-67
2021/07/16 07:59:25;;;;;;;5.88;2.92;;;;;;;28.87;39.56;99868.34;5056216;28;20471;-67
2021/07/16 08:01:53;;;;;;;7.10;2.80;;;;;;;28.70;38.78;99871.59;5056115;28;20033;-67
2021/07/16 08:04:28;;;;;;;4.50;2.60;;;;;;;28.76;38.99;99870.75;5056436;28;20053;-67
2021/07/16 08:06:57;;;;;;;10.18;3.30;;;;;;;28.80;40.33;99871.13;5056227;28;20452;-66
2021/07/16 08:09:27;;;;;;;6.07;3.00;;;;;;;28.69;39.26;99872.69;5055916;28;20052;-66
2021/07/16 08:11:56;;;;;;;10.55;3.17;;;;;;;28.79;40.84;99878.53;5055910;28;20052;-66
2021/07/16 08:14:24;;;;;;;10.23;4.70;;;;;;;28.48;42.51;99873.00;5055682;28;20040;-66
2021/07/16 08:16:53;;;;;;;9.68;4.22;;;;;;;28.77;41.87;99877.06;5055575;28;20488;-67
2021/07/16 08:19:22;;;;;;;9.00;4.00;;;;;;;28.80;42.20;99879.38;5055451;28;20041;-67
2021/07/16 08:21:53;;;;;;;6.55;4.07;;;;;;;28.66;42.73;99883.22;5055718;28;20503;-66
2021/07/16 08:24:23;;;;;;;12.13;4.22;;;;;;;28.64;42.74;99877.97;5055738;28;20094;-67
2021/07/16 08:26:53;;;;;;;6.97;4.03;;;;;;;28.85;43.39;99876.78;5055889;28;20385;-67
2021/07/16 08:29:22;;;;;;;10.63;4.80;;;;;;;28.99;43.55;99886.69;5055550;28;20052;-67
2021/07/16 08:31:53;;;;;;;9.43;4.85;;;;;;;28.89;44.67;99883.56;5055905;28;20095;-67
2021/07/16 08:34:22;;;;;;;12.57;4.85;;;;;;;28.98;44.62;99885.00;5055356;28;20102;-67
2021/07/16 08:36:50;;;;;;;11.02;4.85;;;;;;;29.17;44.94;99876.84;5055640;28;20041;-67
2021/07/16 08:39:19;;;;;;;17.00;4.90;;;;;;;29.01;45.33;99887.28;5054420;28;20462;-67
2021/07/16 08:41:48;;;;;;;8.38;5.03;;;;;;;29.22;44.61;99886.09;5055714;28;20048;-67
2021/07/16 08:44:17;;;;;;;10.57;4.40;;;;;;;29.42;44.49;99882.34;5055081;28;20091;-67
2021/07/16 08:46:48;;;;;;;10.65;4.70;;;;;;;29.35;43.63;99887.91;5054539;28;20041;-66
2021/07/16 08:49:17;;;;;;;10.18;4.05;;;;;;;29.51;42.77;99887.38;5055147;28;20041;-67
2021/07/16 08:51:46;;;;;;;8.07;4.60;;;;;;;29.56;42.45;99887.53;5055405;28;20435;-67
2021/07/16 08:54:16;;;;;;;14.60;4.75;;;;;;;29.46;42.78;99886.34;5054918;28;20053;-67
2021/07/16 08:56:45;;;;;;;8.23;4.00;;;;;;;29.48;42.50;99874.09;5054986;28;20506;-67
2021/07/16 08:59:16;;;;;;;11.40;4.30;;;;;;;29.45;43.28;99880.00;5055045;28;20517;-67
2021/07/16 09:01:46;;;;;;;11.23;4.35;;;;;;;29.52;42.27;99874.47;5055220;28;20044;-67
2021/07/16 09:04:16;;;;;;;10.30;5.10;;;;;;;29.16;43.09;99872.41;5054788;28;20073;-67
2021/07/16 09:06:49;;;;;;;8.30;4.40;;;;;;;29.34;42.93;99872.50;5054849;28;20041;-66
2021/07/16 09:09:21;;;;;;;10.48;4.78;;;;;;;29.42;42.57;99874.09;5054658;28;20048;-67
2021/07/16 09:11:52;;;;;;;8.52;4.40;;;;;;;29.00;43.19;99880.13;5054959;28;20041;-67
2021/07/16 09:14:23;;;;;;;10.30;4.45;;;;;;;29.25;42.68;99882.06;5054806;28;20060;-67
2021/07/16 09:16:59;;;;;;;8.68;4.18;;;;;;;29.34;43.06;99876.09;5054577;28;20045;-67
2021/07/16 09:19:29;;;;;;;13.30;4.50;;;;;;;29.68;43.34;99881.31;5054441;28;20049;-67
2021/07/16 09:22:06;;;;;;;13.18;4.20;;;;;;;29.54;41.99;99877.84;5054639;28;20044;-67
2021/07/16 09:24:35;;;;;;;10.52;4.57;;;;;;;29.73;42.19;99885.06;5055177;28;20094;-67
2021/07/16 09:27:04;;;;;;;11.23;4.25;;;;;;;29.87;41.72;99875.63;5054499;28;20052;-67
2021/07/16 09:29:34;;;;;;;13.95;4.70;;;;;;;29.90;41.73;99879.81;5054316;28;20444;-67
2021/07/16 09:32:06;;;;;;;13.90;4.55;;;;;;;29.98;41.53;99885.03;5054354;28;20044;-67
2021/07/16 09:34:35;;;;;;;9.57;4.33;;;;;;;30.00;41.70;99877.38;5054525;28;20141;-67
2021/07/16 09:37:08;;;;;;;13.90;4.78;;;;;;;30.07;42.64;99875.44;5054600;28;20045;-66
2021/07/16 09:39:37;;;;;;;10.75;4.43;;;;;;;29.95;42.08;99874.50;5053678;28;20342;-66
2021/07/16 09:42:06;;;;;;;11.55;4.57;;;;;;;29.91;41.43;99878.75;5054018;28;20045;-67
2021/07/16 09:44:40;;;;;;;10.35;4.80;;;;;;;30.00;41.83;99882.03;5054157;28;20047;-67
2021/07/16 09:47:13;;;;;;;8.63;4.70;;;;;;;29.63;42.40;99882.84;5054425;28;20143;-73
2021/07/16 09:49:41;;;;;;;;;;;;;;;29.83;42.13;99890.06;5054780;28;20045;-67
2021/07/16 09:52:12;;;;;;;9.32;4.55;;;;;;;29.88;41.66;99884.72;5053805;28;19921;-67
2021/07/16 09:55:07;;;;;;;14.52;4.88;;;;;;;29.89;41.45;99880.88;5053177;28;20057;-66
2021/07/16 09:57:41;;;;;;;9.13;4.55;;;;;;;29.96;41.93;99875.31;5053305;28;20487;-67
2021/07/16 10:00:18;;;;;;;9.48;4.75;;;;;;;29.98;41.69;99874.03;5053886;28;20051;-67
2021/07/16 10:02:49;;;;;;;8.23;4.50;;;;;;;30.20;41.59;99871.69;5053907;28;20055;-66
2021/07/16 10:05:18;;;;;;;11.23;4.38;;;;;;;30.41;41.34;99874.00;5053656;28;20483;-66
2021/07/16 10:07:48;;;;;;;8.02;4.63;;;;;;;30.26;41.39;99875.44;5054013;28;20055;-66
2021/07/16 10:10:18;;;;;;;9.38;4.47;;;;;;;30.48;41.47;99873.88;5053664;28;20534;-67
2021/07/16 10:12:48;;;;;;;9.68;4.30;;;;;;;30.49;40.90;99870.06;5053895;28;20147;-66
2021/07/16 10:15:20;;;;;;;8.40;4.60;;;;;;;30.54;40.19;99867.47;5053733;28;20048;-66
2021/07/16 10:17:51;;;;;;;;;;;;;;;30.22;41.92;99864.06;5053940;28;20455;-66
2021/07/16 10:20:20;;;;;;;8.82;4.85;;;;;;;30.53;41.03;99871.31;5053344;28;19925;-67
2021/07/16 10:22:54;;;;;;;9.95;4.70;;;;;;;30.39;41.22;99861.50;5053486;28;20033;-67
2021/07/16 10:25:23;;;;;;;9.38;4.65;;;;;;;30.39;41.01;99864.28;5053298;28;20049;-67
2021/07/16 10:27:52;;;;;;;11.23;4.72;;;;;;;30.33;41.00;99862.47;5053530;28;20044;-67
2021/07/16 10:30:22;;;;;;;7.07;4.30;;;;;;;30.54;40.10;99870.22;5053177;28;20045;-67
2021/07/16 10:32:53;;;;;;;10.55;4.63;;;;;;;30.48;40.50;99865.63;5053593;28;20381;-67
2021/07/16 10:35:23;;;;;;;8.90;4.80;;;;;;;30.45;40.38;99875.19;5053312;28;20116;-67
2021/07/16 10:37:53;;;;;;;9.45;4.80;;;;;;;30.62;39.73;99875.41;5053601;28;20045;-67
2021/07/16 10:40:36;;;;;;;7.13;4.50;;;;;;;30.63;39.96;99871.59;5053594;28;20430;-67
2021/07/16 10:43:05;;;;;;;8.63;5.13;;;;;;;30.54;39.81;99872.97;5053200;28;20037;-67
2021/07/16 10:45:35;;;;;;;9.02;4.57;;;;;;;30.59;40.29;99866.75;5053024;28;20064;-67
2021/07/16 10:48:17;;;;;;;8.60;4.68;;;;;;;30.73;40.24;99869.16;5053161;28;20496;-67
2021/07/16 10:50:49;;;;;;;7.55;4.72;;;;;;;30.42;40.91;99852.81;5053010;28;20041;-66
2021/07/16 10:53:38;;;;;;;8.40;4.90;;;;;;;30.56;40.38;99864.47;5052921;28;20053;-67
2021/07/16 10:56:09;;;;;;;13.60;4.93;;;;;;;30.65;40.16;99858.47;5053402;28;20079;-67
2021/07/16 10:58:46;;;;;;;9.63;4.55;;;;;;;30.43;40.39;99860.84;5052795;28;20398;-67
2021/07/16 11:01:14;;;;;;;7.68;4.35;;;;;;;30.54;40.46;99861.97;5053113;28;20041;-66
2021/07/16 11:03:45;;;;;;;8.10;4.38;;;;;;;30.38;41.38;99854.34;5052832;28;20049;-67
2021/07/16 11:06:16;;;;;;;10.23;4.70;;;;;;;30.39;41.34;99851.34;5053184;28;20041;-67
2021/07/16 11:09:02;;;;;;;9.18;4.50;;;;;;;30.34;41.29;99851.22;5052669;28;20495;-67
2021/07/16 11:11:39;;;;;;;7.90;4.10;;;;;;;30.59;40.80;99842.81;5052656;28;20048;-67
2021/07/16 11:14:21;;;;;;;10.68;4.80;;;;;;;30.54;40.20;99856.47;5052684;28;20052;-67
2021/07/16 11:16:50;;;;;;;8.30;4.27;;;;;;;30.58;39.88;99856.81;5052496;28;20095;-67
2021/07/16 11:19:27;;;;;;;7.72;4.60;;;;;;;30.76;39.42;99848.56;5052670;28;20737;-67
2021/07/16 11:22:06;;;;;;;8.10;3.95;;;;;;;30.80;39.15;99844.28;5053100;28;20091;-67
2021/07/16 11:24:41;;;;;;;8.57;4.80;;;;;;;30.98;39.34;99841.47;5052479;28;20064;-67
2021/07/16 11:27:17;;;;;;;9.95;4.05;;;;;;;30.69;38.65;99842.31;5052930;28;20044;-67
2021/07/16 11:29:48;;;;;;;7.43;4.07;;;;;;;30.59;38.86;99840.06;5052656;28;20072;-67
2021/07/16 11:32:19;;;;;;;8.95;3.90;;;;;;;30.65;38.93;99841.94;5052666;28;20041;-67
2021/07/16 11:34:52;;;;;;;8.10;3.75;;;;;;;30.82;38.98;99835.78;5052630;28;20045;-67
2021/07/16 11:37:31;;;;;;;7.63;3.70;;;;;;;31.07;38.29;99850.22;5052588;28;20064;-67
2021/07/16 11:40:03;;;;;;;7.80;3.97;;;;;;;31.16;38.08;99840.53;5052638;28;20045;-67
2021/07/16 11:42:33;;;;;;;7.78;3.65;;;;;;;30.83;37.21;99841.06;5052403;28;20037;-67
2021/07/16 11:45:02;;;;;;;5.30;3.17;;;;;;;30.84;36.25;99828.97;5051492;28;20049;-67